createdAt,value
2018-08-10T00:00:40.827Z,13.83
2018-08-10T00:03:10.185Z,14.80
2018-08-10T00:05:39.923Z,14.47
2018-08-10T00:08:08.991Z,13.43
2018-08-10T00:10:37.800Z,14.00
2018-08-10T00:13:06.693Z,13.93
2018-08-10T00:15:35.547Z,12.83
2018-08-10T00:18:04.420Z,13.00
2018-08-10T00:20:33.259Z,12.00
2018-08-10T00:23:02.130Z,12.33
2018-08-10T00:25:31.035Z,13.27
2018-08-10T00:27:59.904Z,11.07
2018-08-10T00:30:28.755Z,11.40
2018-08-10T00:32:57.560Z,11.93
2018-08-10T00:35:26.446Z,11.23
2018-08-10T00:37:55.312Z,11.20
2018-08-10T00:40:24.452Z,10.37
2018-08-10T00:42:53.315Z,11.40
2018-08-10T00:45:22.123Z,11.37
2018-08-10T00:47:51.004Z,11.10
2018-08-10T00:50:19.921Z,12.47
2018-08-10T00:52:49.015Z,12.60
2018-08-10T00:55:19.113Z,11.17
2018-08-10T00:57:48.652Z,12.97
2018-08-10T01:00:22.414Z,11.57
2018-08-10T01:02:52.121Z,12.40
2018-08-10T01:05:20.951Z,11.77
2018-08-10T01:07:49.833Z,11.30
2018-08-10T01:10:20.104Z,11.83
2018-08-10T01:12:49.030Z,12.17
2018-08-10T01:15:18.421Z,11.00
2018-08-10T01:17:47.528Z,10.87
2018-08-10T01:20:21.199Z,10.80
2018-08-10T01:22:55.271Z,10.63
2018-08-10T01:25:25.882Z,10.60
2018-08-10T01:28:02.033Z,10.63
2018-08-10T01:30:31.986Z,10.17
2018-08-10T01:33:01.163Z,10.70
2018-08-10T01:35:30.523Z,9.77
2018-08-10T01:38:00.494Z,10.07
2018-08-10T01:40:29.536Z,9.47
2018-08-10T01:42:58.441Z,10.37
2018-08-10T01:45:27.277Z,9.73
2018-08-10T01:47:56.108Z,8.30
2018-08-10T01:50:24.967Z,8.43
2018-08-10T01:52:53.812Z,8.63
2018-08-10T01:55:22.781Z,8.37
2018-08-10T01:57:51.673Z,9.23
2018-08-10T02:00:20.479Z,9.30
2018-08-10T02:02:49.320Z,8.77
2018-08-10T02:05:18.184Z,9.20
2018-08-10T02:07:47.027Z,9.90
2018-08-10T02:10:17.112Z,8.17
2018-08-10T02:12:52.064Z,8.97
2018-08-10T02:15:20.875Z,9.63
2018-08-10T02:17:49.948Z,10.17
2018-08-10T02:20:20.237Z,9.60
2018-08-10T02:22:49.062Z,8.63
2018-08-10T02:25:19.246Z,9.17
2018-08-10T02:27:49.107Z,9.73
2018-08-10T02:30:19.140Z,9.17
2018-08-10T02:32:48.805Z,9.03
2018-08-10T02:35:17.643Z,7.93
2018-08-10T02:37:46.484Z,8.03
2018-08-10T02:40:20.668Z,8.20
2018-08-10T02:42:50.207Z,7.13
2018-08-10T02:45:19.203Z,7.37
2018-08-10T02:47:48.733Z,7.30
2018-08-10T02:50:17.629Z,6.70
2018-08-10T02:52:46.641Z,7.50
2018-08-10T02:55:15.579Z,6.50
2018-08-10T02:57:44.492Z,7.53
2018-08-10T03:00:15.173Z,6.97
2018-08-10T03:02:44.516Z,5.90
2018-08-10T03:05:13.464Z,5.80
2018-08-10T03:07:42.487Z,5.37
2018-08-10T03:10:12.686Z,5.60
2018-08-10T03:12:41.584Z,6.33
2018-08-10T03:15:15.232Z,6.07
2018-08-10T03:17:44.661Z,5.60
2018-08-10T03:20:13.723Z,6.17
2018-08-10T03:22:42.886Z,4.70
2018-08-10T03:25:13.304Z,5.23
2018-08-10T03:27:42.155Z,5.30
2018-08-10T03:30:12.383Z,4.63
2018-08-10T03:32:41.245Z,4.80
2018-08-10T03:35:10.132Z,4.90
2018-08-10T03:37:39.298Z,4.77
2018-08-10T03:40:11.375Z,5.17
2018-08-10T03:42:40.236Z,4.30
2018-08-10T03:45:09.426Z,5.00
2018-08-10T03:47:38.304Z,4.60
2018-08-10T03:50:09.619Z,4.83
2018-08-10T03:52:38.472Z,5.27
2018-08-10T03:55:07.869Z,5.10
2018-08-10T03:57:36.767Z,4.80
2018-08-10T04:00:08.204Z,4.97
2018-08-10T04:02:37.208Z,5.20
2018-08-10T04:05:06.756Z,5.20
2018-08-10T04:07:35.641Z,5.30
2018-08-10T04:10:05.320Z,4.80
2018-08-10T04:12:34.110Z,5.30
2018-08-10T04:15:02.967Z,4.13
2018-08-10T04:17:31.865Z,4.97
2018-08-10T04:20:00.702Z,4.60
2018-08-10T04:22:29.534Z,4.50
2018-08-10T04:24:58.402Z,4.60
2018-08-10T04:27:27.245Z,4.37
2018-08-10T04:29:56.131Z,5.10
2018-08-10T04:32:25.329Z,4.10
2018-08-10T04:34:54.175Z,3.60
2018-08-10T04:37:23.011Z,3.77
2018-08-10T04:39:51.856Z,4.00
2018-08-10T04:42:20.680Z,4.47
2018-08-10T04:44:49.475Z,3.20
2018-08-10T04:47:18.323Z,3.13
2018-08-10T04:49:47.190Z,3.40
2018-08-10T04:52:16.003Z,3.30
2018-08-10T04:54:44.884Z,3.10
2018-08-10T04:57:13.706Z,3.13
2018-08-10T04:59:42.565Z,2.90
2018-08-10T05:02:11.488Z,3.23
2018-08-10T05:04:40.372Z,3.47
2018-08-10T05:07:09.228Z,3.13
2018-08-10T05:09:38.072Z,3.73
2018-08-10T05:12:06.907Z,3.00
2018-08-10T05:14:35.764Z,2.80
2018-08-10T05:17:04.575Z,2.60
2018-08-10T05:19:33.474Z,2.80
2018-08-10T05:22:02.317Z,2.70
2018-08-10T05:24:31.155Z,3.03
2018-08-10T05:27:00.040Z,2.70
2018-08-10T05:29:28.884Z,3.83
2018-08-10T05:31:57.761Z,2.47
2018-08-10T05:34:26.620Z,2.50
2018-08-10T05:36:55.443Z,2.40
2018-08-10T05:39:24.275Z,2.80
2018-08-10T05:41:53.116Z,2.67
2018-08-10T05:44:21.997Z,2.50
2018-08-10T05:46:51.152Z,2.50
2018-08-10T05:49:19.999Z,2.57
2018-08-10T05:51:48.904Z,2.60
2018-08-10T05:54:17.758Z,2.20
2018-08-10T05:56:46.621Z,2.43
2018-08-10T05:59:15.415Z,1.80
2018-08-10T06:01:44.244Z,1.90
2018-08-10T06:04:13.078Z,1.90
2018-08-10T06:06:41.981Z,1.90
2018-08-10T06:09:13.879Z,1.77
2018-08-10T06:11:43.699Z,2.00
2018-08-10T06:14:13.247Z,1.80
2018-08-10T06:16:42.137Z,1.50
2018-08-10T06:19:11.036Z,1.73
2018-08-10T06:21:40.019Z,1.30
2018-08-10T06:24:08.719Z,1.80
2018-08-10T06:26:37.562Z,1.50
2018-08-10T06:29:06.415Z,1.60
2018-08-10T06:31:35.298Z,1.90
2018-08-10T06:34:04.118Z,1.33
2018-08-10T06:36:32.935Z,1.30
2018-08-10T06:39:01.797Z,1.13
2018-08-10T06:41:30.591Z,1.37
2018-08-10T06:43:59.520Z,1.20
2018-08-10T06:46:28.338Z,1.50
2018-08-10T06:48:57.256Z,1.37
2018-08-10T06:51:26.120Z,1.13
2018-08-10T06:53:54.993Z,1.53
2018-08-10T06:56:23.876Z,1.27
2018-08-10T06:58:52.791Z,1.30
2018-08-10T07:01:21.664Z,1.50
2018-08-10T07:03:50.453Z,1.13
2018-08-10T07:06:19.251Z,1.30
2018-08-10T07:08:48.150Z,1.47
2018-08-10T07:11:17.084Z,1.50
2018-08-10T07:13:45.914Z,2.60
2018-08-10T07:16:14.764Z,2.10
2018-08-10T07:18:43.693Z,1.50
2018-08-10T07:21:12.555Z,1.40
2018-08-10T07:23:41.425Z,1.70
2018-08-10T07:26:10.275Z,1.20
2018-08-10T07:28:39.064Z,1.20
2018-08-10T07:31:07.916Z,1.43
2018-08-10T07:33:36.845Z,1.37
2018-08-10T07:36:05.782Z,1.40
2018-08-10T07:38:34.618Z,1.50
2018-08-10T07:41:03.481Z,1.50
2018-08-10T07:43:32.340Z,1.40
2018-08-10T07:46:01.197Z,1.10
2018-08-10T07:48:30.032Z,1.43
2018-08-10T07:50:58.872Z,1.07
2018-08-10T07:53:27.708Z,1.63
2018-08-10T07:55:56.638Z,1.30
2018-08-10T07:58:25.446Z,1.40
2018-08-10T08:00:54.304Z,1.33
2018-08-10T08:03:23.202Z,1.30
2018-08-10T08:05:52.028Z,1.40
2018-08-10T08:08:20.937Z,1.40
2018-08-10T08:10:49.793Z,1.20
2018-08-10T08:13:18.590Z,1.80
2018-08-10T08:15:47.462Z,1.20
2018-08-10T08:18:16.286Z,1.20
2018-08-10T08:21:10.181Z,1.10
2018-08-10T08:23:39.042Z,1.20
2018-08-10T08:26:07.932Z,2.57
2018-08-10T08:28:37.059Z,1.20
2018-08-10T08:31:06.315Z,1.20
2018-08-10T08:33:51.296Z,1.50
2018-08-10T08:36:20.177Z,1.50
2018-08-10T08:39:15.364Z,1.33
2018-08-10T08:41:44.238Z,1.30
2018-08-10T08:44:44.092Z,1.50
2018-08-10T08:47:12.931Z,1.67
2018-08-10T08:49:41.776Z,1.47
2018-08-10T08:52:10.643Z,1.33
2018-08-10T08:55:47.876Z,1.27
2018-08-10T08:58:16.732Z,1.40
2018-08-10T09:00:45.592Z,1.60
2018-08-10T09:03:32.639Z,1.50
2018-08-10T09:06:01.791Z,1.40
2018-08-10T09:08:30.627Z,1.10
2018-08-10T09:11:00.654Z,1.30
2018-08-10T09:13:44.437Z,1.17
2018-08-10T09:16:13.251Z,1.30
2018-08-10T09:18:42.062Z,1.20
2018-08-10T09:21:10.943Z,1.40
2018-08-10T09:23:39.833Z,1.60
2018-08-10T09:26:08.630Z,1.40
2018-08-10T09:28:37.501Z,1.27
2018-08-10T09:31:06.516Z,1.40
2018-08-10T09:33:35.577Z,1.93
2018-08-10T09:36:04.439Z,1.40
2018-08-10T09:38:33.269Z,1.57
2018-08-10T09:41:02.103Z,1.40
2018-08-10T09:43:30.939Z,1.33
2018-08-10T09:45:59.744Z,1.40
2018-08-10T09:48:28.596Z,1.93
2018-08-10T09:50:57.435Z,1.50
2018-08-10T09:53:26.278Z,1.70
2018-08-10T09:55:55.108Z,1.63
2018-08-10T09:58:23.923Z,1.40
2018-08-10T10:00:59.791Z,1.50
2018-08-10T10:03:28.631Z,1.60
2018-08-10T10:05:58.973Z,1.77
2018-08-10T10:08:27.987Z,1.50
2018-08-10T10:10:56.828Z,1.70
2018-08-10T10:13:25.663Z,1.30
2018-08-10T10:15:54.484Z,1.43
2018-08-10T10:18:23.286Z,1.60
2018-08-10T10:20:52.139Z,1.40
2018-08-10T10:23:21.006Z,1.67
2018-08-10T10:25:49.825Z,1.40
2018-08-10T10:28:18.732Z,1.70
2018-08-10T10:30:47.622Z,1.70
2018-08-10T10:33:16.522Z,2.00
2018-08-10T10:35:45.464Z,1.80
2018-08-10T10:38:14.385Z,1.40
2018-08-10T10:40:43.309Z,1.40
2018-08-10T10:43:12.140Z,1.53
2018-08-10T10:45:40.999Z,2.00
2018-08-10T10:48:09.790Z,1.43
2018-08-10T10:50:38.616Z,1.40
2018-08-10T10:53:07.555Z,1.63
2018-08-10T10:55:36.532Z,1.83
2018-08-10T10:58:05.254Z,1.40
2018-08-10T11:00:34.140Z,1.60
2018-08-10T11:03:02.992Z,1.40
2018-08-10T11:05:31.819Z,1.57
2018-08-10T11:08:00.640Z,1.57
2018-08-10T11:10:29.565Z,1.70
2018-08-10T11:12:58.453Z,1.60
2018-08-10T11:15:27.324Z,1.90
2018-08-10T11:17:56.214Z,1.80
2018-08-10T11:20:25.003Z,2.00
2018-08-10T11:22:53.819Z,1.80
2018-08-10T11:25:22.742Z,1.90
2018-08-10T11:27:51.573Z,1.97
2018-08-10T11:30:20.591Z,1.60
2018-08-10T11:32:49.357Z,1.80
2018-08-10T11:35:18.220Z,1.83
2018-08-10T11:37:47.082Z,1.60
2018-08-10T11:40:16.223Z,1.60
2018-08-10T11:42:45.053Z,1.90
2018-08-10T11:45:15.301Z,1.50
2018-08-10T11:47:44.106Z,1.60
2018-08-10T11:50:12.989Z,1.60
2018-08-10T11:52:41.791Z,1.83
2018-08-10T11:55:12.703Z,1.77
2018-08-10T11:57:41.740Z,1.83
2018-08-10T12:00:12.520Z,1.50
2018-08-10T12:02:41.442Z,1.60
2018-08-10T12:05:12.024Z,1.60
2018-08-10T12:07:41.103Z,1.73
2018-08-10T12:10:10.117Z,1.70
2018-08-10T12:12:39.219Z,1.80
2018-08-10T12:15:10.943Z,1.70
2018-08-10T12:17:39.800Z,1.43
2018-08-10T12:20:09.583Z,1.40
2018-08-10T12:22:39.149Z,2.30
2018-08-10T12:25:08.042Z,1.70
2018-08-10T12:27:37.013Z,1.80
2018-08-10T12:30:07.865Z,1.83
2018-08-10T12:32:36.794Z,1.40
2018-08-10T12:35:05.644Z,1.50
2018-08-10T12:37:34.467Z,1.50
2018-08-10T12:40:03.321Z,1.70
2018-08-10T12:42:32.120Z,1.57
2018-08-10T12:45:00.979Z,1.50
2018-08-10T12:47:29.938Z,1.60
2018-08-10T12:49:58.795Z,1.63
2018-08-10T12:52:27.623Z,1.23
2018-08-10T12:54:56.499Z,1.40
2018-08-10T12:57:25.303Z,1.20
2018-08-10T12:59:54.090Z,1.40
2018-08-10T13:02:22.969Z,1.57
2018-08-10T13:04:51.836Z,1.20
2018-08-10T13:07:20.667Z,1.40
2018-08-10T13:09:49.584Z,1.43
2018-08-10T13:12:18.432Z,1.80
2018-08-10T13:14:47.256Z,1.20
2018-08-10T13:17:16.599Z,1.60
2018-08-10T13:19:45.504Z,1.20
2018-08-10T13:22:14.295Z,1.47
2018-08-10T13:24:43.297Z,1.30
2018-08-10T13:27:12.119Z,1.50
2018-08-10T13:29:40.977Z,1.27
2018-08-10T13:32:09.883Z,1.40
2018-08-10T13:34:38.732Z,1.40
2018-08-10T13:37:07.611Z,1.20
2018-08-10T13:39:36.520Z,1.23
2018-08-10T13:42:05.395Z,1.40
2018-08-10T13:44:34.265Z,1.37
2018-08-10T13:47:03.123Z,1.40
2018-08-10T13:49:32.009Z,1.33
2018-08-10T13:52:00.917Z,1.20
2018-08-10T13:54:29.796Z,1.30
2018-08-10T13:56:58.760Z,1.30
2018-08-10T13:59:27.594Z,2.03
2018-08-10T14:01:56.573Z,1.30
2018-08-10T14:04:25.441Z,1.83
2018-08-10T14:06:54.290Z,1.37
2018-08-10T14:09:23.160Z,1.50
2018-08-10T14:11:52.028Z,1.53
2018-08-10T14:14:20.888Z,1.50
2018-08-10T14:16:49.745Z,1.70
2018-08-10T14:19:18.731Z,1.63
2018-08-10T14:21:47.562Z,2.20
2018-08-10T14:24:16.387Z,2.03
2018-08-10T14:26:45.901Z,1.70
2018-08-10T14:29:14.724Z,1.23
2018-08-10T14:31:43.584Z,1.80
2018-08-10T14:34:12.471Z,1.50
2018-08-10T14:36:41.311Z,1.40
2018-08-10T14:39:11.674Z,1.37
2018-08-10T14:41:40.645Z,1.00
2018-08-10T14:44:09.446Z,1.30
2018-08-10T14:46:38.283Z,1.30
2018-08-10T14:49:08.099Z,1.40
2018-08-10T14:51:36.939Z,1.70
2018-08-10T14:54:06.080Z,1.63
2018-08-10T14:56:34.913Z,1.50
2018-08-10T14:59:03.695Z,1.30
2018-08-10T15:01:32.523Z,1.73
2018-08-10T15:04:01.422Z,1.50
2018-08-10T15:06:30.223Z,1.60
2018-08-10T15:08:59.015Z,1.60
2018-08-10T15:11:27.810Z,1.53
2018-08-10T15:13:56.619Z,1.33
2018-08-10T15:16:25.431Z,1.73
2018-08-10T15:18:54.297Z,1.30
2018-08-10T15:21:23.199Z,1.30
2018-08-10T15:23:52.094Z,1.47
2018-08-10T15:26:20.927Z,2.00
2018-08-10T15:28:49.780Z,1.40
2018-08-10T15:31:18.633Z,1.87
2018-08-10T15:33:47.763Z,1.40
2018-08-10T15:36:16.557Z,1.23
2018-08-10T15:38:45.425Z,1.60
2018-08-10T15:41:14.230Z,1.23
2018-08-10T15:43:43.127Z,1.70
2018-08-10T15:46:11.953Z,1.80
2018-08-10T15:48:40.821Z,1.50
2018-08-10T15:51:09.672Z,1.40
2018-08-10T15:53:38.454Z,1.70
2018-08-10T15:56:07.349Z,1.43
2018-08-10T15:58:36.176Z,1.43
2018-08-10T16:01:04.979Z,1.30
2018-08-10T16:03:33.831Z,1.80
2018-08-10T16:06:09.411Z,1.40
2018-08-10T16:08:38.395Z,1.53
2018-08-10T16:11:07.463Z,1.70
2018-08-10T16:13:36.257Z,1.67
2018-08-10T16:16:05.241Z,1.53
2018-08-10T16:18:34.060Z,1.70
2018-08-10T16:21:03.043Z,1.77
2018-08-10T16:23:31.883Z,1.27
2018-08-10T16:26:00.740Z,1.47
2018-08-10T16:28:29.598Z,1.40
2018-08-10T16:30:58.403Z,1.30
2018-08-10T16:33:27.245Z,1.40
2018-08-10T16:35:56.118Z,1.60
2018-08-10T16:38:24.941Z,1.43
2018-08-10T16:40:53.741Z,1.30
2018-08-10T16:43:22.583Z,2.10
2018-08-10T16:45:51.481Z,1.30
2018-08-10T16:48:20.315Z,1.50
2018-08-10T16:50:49.219Z,1.57
2018-08-10T16:53:17.960Z,1.50
2018-08-10T16:55:46.840Z,1.57
2018-08-10T16:58:15.697Z,1.67
2018-08-10T17:00:44.491Z,1.70
2018-08-10T17:03:13.387Z,1.60
2018-08-10T17:05:42.239Z,1.50
2018-08-10T17:08:11.269Z,2.50
2018-08-10T17:11:15.740Z,1.63
2018-08-10T17:13:44.575Z,1.50
2018-08-10T17:16:13.527Z,1.67
2018-08-10T17:18:42.418Z,1.53
2018-08-10T17:21:11.408Z,1.83
2018-08-10T17:23:40.251Z,1.87
2018-08-10T17:26:09.123Z,1.53
2018-08-10T17:28:38.006Z,2.40
2018-08-10T17:31:07.061Z,1.90
2018-08-10T17:33:36.034Z,1.77
2018-08-10T17:36:05.232Z,1.70
2018-08-10T17:38:34.157Z,2.17
2018-08-10T17:41:03.045Z,1.70
2018-08-10T17:43:31.992Z,1.87
2018-08-10T17:46:00.896Z,1.90
2018-08-10T17:48:29.766Z,2.23
2018-08-10T17:50:58.634Z,1.90
2018-08-10T17:53:27.506Z,1.63
2018-08-10T17:55:56.431Z,1.80
2018-08-10T17:58:25.271Z,2.13
2018-08-10T18:00:54.136Z,2.10
2018-08-10T18:03:22.983Z,1.93
2018-08-10T18:05:51.819Z,1.87
2018-08-10T18:08:20.685Z,1.60
2018-08-10T18:10:49.511Z,2.13
2018-08-10T18:13:18.375Z,2.20
2018-08-10T18:15:47.228Z,2.30
2018-08-10T18:18:16.085Z,2.70
2018-08-10T18:20:44.951Z,2.00
2018-08-10T18:23:13.853Z,2.43
2018-08-10T18:25:42.688Z,2.03
2018-08-10T18:28:11.530Z,1.90
2018-08-10T18:30:40.512Z,1.77
2018-08-10T18:33:09.340Z,2.10
2018-08-10T18:35:38.196Z,2.30
2018-08-10T18:38:07.002Z,1.53
2018-08-10T18:40:35.872Z,2.10
2018-08-10T18:43:05.086Z,2.30
2018-08-10T18:45:33.957Z,2.10
2018-08-10T18:48:02.791Z,2.00
2018-08-10T18:50:31.648Z,2.57
2018-08-10T18:53:00.447Z,2.30
2018-08-10T18:55:29.304Z,2.13
2018-08-10T18:57:58.209Z,2.30
2018-08-10T19:00:27.608Z,2.70
2018-08-10T19:02:56.508Z,2.27
2018-08-10T19:05:25.356Z,2.50
2018-08-10T19:07:54.216Z,2.30
2018-08-10T19:10:25.371Z,2.40
2018-08-10T19:12:54.236Z,2.30
2018-08-10T19:15:23.064Z,2.77
2018-08-10T19:17:51.944Z,2.67
2018-08-10T19:20:20.820Z,3.13
2018-08-10T19:22:49.669Z,2.90
2018-08-10T19:25:18.561Z,2.60
2018-08-10T19:27:47.439Z,2.37
2018-08-10T19:30:18.741Z,3.57
2018-08-10T19:32:48.325Z,3.77
2018-08-10T19:35:17.843Z,2.07
2018-08-10T19:37:46.741Z,2.40
2018-08-10T19:40:16.847Z,5.70
2018-08-10T19:42:45.697Z,2.57
2018-08-10T19:45:15.529Z,2.30
2018-08-10T19:47:44.780Z,3.10
2018-08-10T19:50:15.220Z,2.40
2018-08-10T19:52:44.104Z,2.60
2018-08-10T19:55:14.620Z,2.97
2018-08-10T19:57:43.537Z,2.80
2018-08-10T20:00:15.333Z,2.57
2018-08-10T20:02:46.648Z,2.93
2018-08-10T20:05:15.701Z,3.00
2018-08-10T20:07:44.762Z,2.87
2018-08-10T20:10:14.437Z,4.40
2018-08-10T20:12:43.363Z,3.40
2018-08-10T20:15:15.348Z,3.23
2018-08-10T20:17:44.251Z,3.40
2018-08-10T20:20:16.460Z,3.60
2018-08-10T20:22:45.673Z,3.60
2018-08-10T20:25:15.211Z,3.67
2018-08-10T20:27:44.060Z,3.87
2018-08-10T20:30:16.152Z,4.00
2018-08-10T20:32:45.458Z,3.00
2018-08-10T20:35:17.415Z,3.50
2018-08-10T20:37:46.276Z,3.67
2018-08-10T20:40:17.413Z,3.97
2018-08-10T20:42:46.575Z,5.70
2018-08-10T20:45:16.476Z,3.80
2018-08-10T20:47:45.364Z,3.00
2018-08-10T20:50:16.031Z,3.40
2018-08-10T20:52:45.422Z,3.50
2018-08-10T20:55:14.222Z,3.43
2018-08-10T20:57:43.786Z,3.47
2018-08-10T21:00:12.935Z,4.20
2018-08-10T21:02:43.249Z,3.70
2018-08-10T21:05:12.445Z,3.50
2018-08-10T21:07:41.315Z,3.87
2018-08-10T21:10:12.413Z,3.10
2018-08-10T21:12:42.257Z,3.63
2018-08-10T21:15:12.448Z,3.83
2018-08-10T21:17:42.395Z,3.60
2018-08-10T21:20:12.891Z,3.60
2018-08-10T21:22:41.737Z,3.67
2018-08-10T21:25:11.283Z,3.60
2018-08-10T21:27:40.669Z,3.63
2018-08-10T21:30:13.387Z,3.40
2018-08-10T21:32:42.229Z,3.63
2018-08-10T21:35:11.311Z,3.00
2018-08-10T21:37:40.189Z,2.67
2018-08-10T21:40:09.942Z,3.03
2018-08-10T21:42:39.064Z,2.73
2018-08-10T21:45:07.948Z,2.87
2018-08-10T21:47:37.339Z,3.90
2018-08-10T21:50:09.163Z,2.50
2018-08-10T21:52:38.027Z,2.90
2018-08-10T21:55:06.925Z,2.60
2018-08-10T21:57:35.736Z,2.70
2018-08-10T22:00:10.000Z,2.97
2018-08-10T22:02:38.807Z,3.90
2018-08-10T22:05:07.663Z,2.50
2018-08-10T22:07:36.537Z,2.80
2018-08-10T22:10:05.887Z,2.63
2018-08-10T22:12:38.912Z,2.27
2018-08-10T22:15:13.077Z,3.37
2018-08-10T22:17:47.308Z,3.13
2018-08-10T22:20:16.197Z,2.83
2018-08-10T22:22:45.049Z,3.03
2018-08-10T22:25:13.906Z,2.80
2018-08-10T22:27:42.708Z,2.93
2018-08-10T22:30:11.580Z,4.27
2018-08-10T22:32:40.568Z,2.50
2018-08-10T22:35:09.505Z,2.23
2018-08-10T22:37:38.392Z,3.30
2018-08-10T22:40:07.533Z,3.20
2018-08-10T22:42:36.582Z,3.40
2018-08-10T22:45:06.044Z,2.90
2018-08-10T22:47:34.927Z,2.60
2018-08-10T22:50:03.808Z,2.70
2018-08-10T22:52:32.665Z,3.17
2018-08-10T22:55:01.562Z,3.10
2018-08-10T22:57:30.399Z,3.20
2018-08-10T22:59:59.544Z,2.70
2018-08-10T23:02:28.437Z,2.80
2018-08-10T23:04:57.249Z,2.60
2018-08-10T23:07:26.096Z,2.93
2018-08-10T23:09:54.953Z,3.03
2018-08-10T23:12:23.759Z,2.63
2018-08-10T23:14:52.562Z,2.73
2018-08-10T23:17:21.427Z,2.50
2018-08-10T23:19:50.292Z,2.90
2018-08-10T23:22:19.423Z,2.40
2018-08-10T23:24:48.287Z,2.50
2018-08-10T23:27:17.112Z,2.60
2018-08-10T23:29:45.916Z,2.30
2018-08-10T23:32:14.796Z,2.20
2018-08-10T23:34:43.664Z,2.07
2018-08-10T23:37:12.499Z,2.17
2018-08-10T23:39:41.412Z,1.90
2018-08-10T23:42:10.253Z,2.03
2018-08-10T23:44:39.114Z,2.00
2018-08-10T23:47:08.019Z,2.70
2018-08-10T23:49:36.819Z,2.30
2018-08-10T23:52:05.858Z,2.50
2018-08-10T23:54:34.728Z,1.83
2018-08-10T23:57:03.639Z,1.90
2018-08-10T23:59:32.487Z,2.03
